createdAt,value
2022-09-22T00:01:11.832Z,5.10
2022-09-22T00:03:40.171Z,4.57
2022-09-22T00:06:08.931Z,4.77
2022-09-22T00:08:37.417Z,5.17
2022-09-22T00:11:14.014Z,5.33
2022-09-22T00:13:42.071Z,4.57
2022-09-22T00:16:09.783Z,4.80
2022-09-22T00:18:36.971Z,5.03
2022-09-22T00:21:09.288Z,4.33
2022-09-22T00:23:38.394Z,4.60
2022-09-22T00:26:06.657Z,5.17
2022-09-22T00:28:34.195Z,5.20
2022-09-22T00:31:04.623Z,4.70
2022-09-22T00:33:31.812Z,5.10
2022-09-22T00:35:59.414Z,5.60
2022-09-22T00:38:26.840Z,5.00
2022-09-22T00:40:54.280Z,5.07
2022-09-22T00:43:23.107Z,4.87
2022-09-22T00:45:52.130Z,4.57
2022-09-22T00:48:21.532Z,4.57
2022-09-22T00:50:49.520Z,4.83
2022-09-22T00:53:17.239Z,4.63
2022-09-22T00:56:10.721Z,4.77
2022-09-22T00:58:40.483Z,5.10
2022-09-22T01:01:09.560Z,4.97
2022-09-22T01:03:39.170Z,4.87
2022-09-22T01:06:07.817Z,5.40
2022-09-22T01:08:35.029Z,4.53
2022-09-22T01:11:02.595Z,5.27
2022-09-22T01:13:35.542Z,4.17
2022-09-22T01:16:02.665Z,5.53
2022-09-22T01:18:45.152Z,5.27
2022-09-22T01:21:12.300Z,5.20
2022-09-22T01:23:53.171Z,5.40
2022-09-22T01:26:32.282Z,5.40
2022-09-22T01:29:18.149Z,5.30
2022-09-22T01:32:07.286Z,5.63
2022-09-22T01:34:37.758Z,5.13
2022-09-22T01:37:17.518Z,6.07
2022-09-22T01:39:48.271Z,5.00
2022-09-22T01:42:34.058Z,5.23
2022-09-22T01:45:04.223Z,5.27
2022-09-22T01:47:49.638Z,5.27
2022-09-22T01:50:20.825Z,5.20
2022-09-22T01:52:48.916Z,5.00
2022-09-22T01:55:24.459Z,5.07
2022-09-22T01:57:55.259Z,4.93
2022-09-22T02:00:23.229Z,5.90
2022-09-22T02:02:55.193Z,5.20
2022-09-22T02:05:26.155Z,4.43
2022-09-22T02:07:54.440Z,4.30
2022-09-22T02:10:24.779Z,4.80
2022-09-22T02:12:52.550Z,4.33
2022-09-22T02:15:39.079Z,4.10
2022-09-22T02:18:09.916Z,3.80
2022-09-22T02:20:37.256Z,4.03
2022-09-22T02:23:04.403Z,4.50
2022-09-22T02:25:31.825Z,4.57
2022-09-22T02:28:02.291Z,4.23
2022-09-22T02:30:29.493Z,3.90
2022-09-22T02:32:57.212Z,4.03
2022-09-22T02:35:26.294Z,4.03
2022-09-22T02:38:03.635Z,4.37
2022-09-22T02:40:40.134Z,4.67
2022-09-22T02:43:10.752Z,4.50
2022-09-22T02:45:40.623Z,4.27
2022-09-22T02:48:13.142Z,4.63
2022-09-22T02:50:40.441Z,4.67
2022-09-22T02:53:15.609Z,4.10
2022-09-22T02:55:42.922Z,3.80
2022-09-22T02:58:10.131Z,4.50
2022-09-22T03:00:37.457Z,4.33
2022-09-22T03:03:04.834Z,4.30
2022-09-22T03:05:31.985Z,5.13
2022-09-22T03:07:59.204Z,5.20
2022-09-22T03:10:26.387Z,4.70
2022-09-22T03:13:15.108Z,5.20
2022-09-22T03:15:41.114Z,4.40
2022-09-22T03:18:08.300Z,5.37
2022-09-22T03:20:35.435Z,4.80
2022-09-22T03:23:02.610Z,4.80
2022-09-22T03:25:29.769Z,5.20
2022-09-22T03:27:56.918Z,5.00
2022-09-22T03:30:24.096Z,5.43
2022-09-22T03:32:51.248Z,4.87
2022-09-22T03:35:18.523Z,5.50
2022-09-22T03:37:46.399Z,4.90
2022-09-22T03:40:13.539Z,5.47
2022-09-22T03:42:40.708Z,5.83
2022-09-22T03:45:08.458Z,6.17
2022-09-22T03:47:35.565Z,5.90
2022-09-22T03:50:03.136Z,5.20
2022-09-22T03:52:31.539Z,5.00
2022-09-22T03:54:58.724Z,5.13
2022-09-22T03:57:25.971Z,4.97
2022-09-22T03:59:53.101Z,5.00
2022-09-22T04:02:20.238Z,5.20
2022-09-22T04:04:47.460Z,4.67
2022-09-22T04:07:14.563Z,4.90
2022-09-22T04:09:42.043Z,5.00
2022-09-22T04:12:09.786Z,4.67
2022-09-22T04:14:37.294Z,4.53
2022-09-22T04:17:05.656Z,4.67
2022-09-22T04:19:35.866Z,4.20
2022-09-22T04:22:03.838Z,5.40
2022-09-22T04:24:31.016Z,4.73
2022-09-22T04:29:45.508Z,4.63
2022-09-22T04:32:12.631Z,4.37
2022-09-22T04:34:39.867Z,4.63
2022-09-22T04:37:07.041Z,4.63
2022-09-22T04:39:34.202Z,3.80
2022-09-22T04:42:01.342Z,4.77
2022-09-22T04:44:30.315Z,4.77
2022-09-22T04:47:00.473Z,3.80
2022-09-22T04:49:27.676Z,4.80
2022-09-22T04:51:54.851Z,5.03
2022-09-22T04:54:22.015Z,4.70
2022-09-22T04:56:49.132Z,5.00
2022-09-22T04:59:16.281Z,4.80
2022-09-22T05:01:43.442Z,5.03
2022-09-22T05:04:10.783Z,5.07
2022-09-22T05:06:39.055Z,4.53
2022-09-22T05:09:06.393Z,4.30
2022-09-22T05:11:33.667Z,4.70
2022-09-22T05:14:02.167Z,4.53
2022-09-22T05:16:31.294Z,4.73
2022-09-22T05:18:58.995Z,4.67
2022-09-22T05:21:26.164Z,5.43
2022-09-22T05:23:54.253Z,4.60
2022-09-22T05:26:21.448Z,5.10
2022-09-22T05:28:51.441Z,4.53
2022-09-22T05:31:18.860Z,4.93
2022-09-22T05:33:46.331Z,4.70
2022-09-22T05:36:13.463Z,5.43
2022-09-22T05:38:40.650Z,5.30
2022-09-22T05:41:08.038Z,5.27
2022-09-22T05:43:35.358Z,4.90
2022-09-22T05:46:02.537Z,4.53
2022-09-22T05:48:31.356Z,5.57
2022-09-22T05:50:59.007Z,5.37
2022-09-22T05:53:26.286Z,4.83
2022-09-22T05:55:53.411Z,6.00
2022-09-22T05:58:20.833Z,4.90
2022-09-22T06:00:48.069Z,5.03
2022-09-22T06:03:15.316Z,4.47
2022-09-22T06:05:42.752Z,4.90
2022-09-22T06:08:09.917Z,5.37
2022-09-22T06:10:38.275Z,5.80
2022-09-22T06:13:06.803Z,4.63
2022-09-22T06:15:36.006Z,6.23
2022-09-22T06:18:04.149Z,5.40
2022-09-22T06:20:31.966Z,5.57
2022-09-22T06:23:00.075Z,5.97
2022-09-22T06:25:28.613Z,5.50
2022-09-22T06:28:00.398Z,5.23
2022-09-22T06:30:27.754Z,5.47
2022-09-22T06:32:56.227Z,5.57
2022-09-22T06:35:24.159Z,5.50
2022-09-22T06:37:57.977Z,5.10
2022-09-22T06:40:26.415Z,5.70
2022-09-22T06:42:57.995Z,5.97
2022-09-22T06:45:27.272Z,6.10
2022-09-22T06:47:58.859Z,5.70
2022-09-22T06:50:36.796Z,6.33
2022-09-22T06:53:05.066Z,7.00
2022-09-22T06:55:32.452Z,6.30
2022-09-22T06:58:01.121Z,6.60
2022-09-22T07:00:31.697Z,6.03
2022-09-22T07:03:05.599Z,6.00
2022-09-22T07:05:33.319Z,6.23
2022-09-22T07:08:00.812Z,6.63
2022-09-22T07:10:29.588Z,6.77
2022-09-22T07:12:59.261Z,7.37
2022-09-22T07:15:26.848Z,6.40
2022-09-22T07:17:54.044Z,7.00
2022-09-22T07:20:22.063Z,6.67
2022-09-22T07:22:49.271Z,6.37
2022-09-22T07:25:16.720Z,6.50
2022-09-22T07:27:44.080Z,5.73
2022-09-22T07:30:13.426Z,6.70
2022-09-22T07:32:40.690Z,6.40
2022-09-22T07:35:08.011Z,5.27
2022-09-22T07:37:36.508Z,5.60
2022-09-22T07:40:03.856Z,5.60
2022-09-22T07:42:31.146Z,6.07
2022-09-22T07:45:13.704Z,6.10
2022-09-22T07:47:59.487Z,6.20
2022-09-22T07:50:26.654Z,5.83
2022-09-22T07:52:54.681Z,6.10
2022-09-22T07:55:24.204Z,5.23
2022-09-22T07:57:57.873Z,5.00
2022-09-22T08:00:33.671Z,5.10
2022-09-22T08:03:01.483Z,4.47
2022-09-22T08:05:29.889Z,3.70
2022-09-22T08:08:02.353Z,4.63
2022-09-22T08:10:29.567Z,4.37
2022-09-22T08:12:57.949Z,4.63
2022-09-22T08:15:27.399Z,4.73
2022-09-22T08:18:03.871Z,4.40
2022-09-22T08:20:30.966Z,4.17
2022-09-22T08:22:58.212Z,4.87
2022-09-22T08:25:25.494Z,4.00
2022-09-22T08:27:52.613Z,4.30
2022-09-22T08:30:20.040Z,4.47
2022-09-22T08:32:47.744Z,4.60
2022-09-22T08:35:14.908Z,4.30
2022-09-22T08:37:43.802Z,3.97
2022-09-22T08:40:16.110Z,4.60
2022-09-22T08:42:45.735Z,4.97
2022-09-22T08:45:31.743Z,4.40
2022-09-22T08:48:25.655Z,4.40
2022-09-22T08:51:15.015Z,4.47
2022-09-22T08:53:45.562Z,4.67
2022-09-22T08:56:30.631Z,3.87
2022-09-22T08:59:16.767Z,3.83
2022-09-22T09:01:52.967Z,3.93
2022-09-22T09:04:37.499Z,4.00
2022-09-22T09:07:20.627Z,4.00
2022-09-22T09:09:47.747Z,3.87
2022-09-22T09:12:39.537Z,3.77
2022-09-22T09:15:06.936Z,4.23
2022-09-22T09:17:36.894Z,3.33
2022-09-22T09:20:13.114Z,3.90
2022-09-22T09:22:48.443Z,3.43
2022-09-22T09:25:27.857Z,3.70
2022-09-22T09:27:57.788Z,3.70
2022-09-22T09:30:24.958Z,3.73
2022-09-22T09:33:02.360Z,3.20
2022-09-22T09:35:44.189Z,3.53
2022-09-22T09:38:14.802Z,3.43
2022-09-22T09:40:44.807Z,3.80
2022-09-22T09:43:12.267Z,3.37
2022-09-22T09:45:57.764Z,3.90
2022-09-22T09:48:45.260Z,3.63
2022-09-22T09:51:12.998Z,3.50
2022-09-22T09:53:46.974Z,3.40
2022-09-22T09:56:27.454Z,3.33
2022-09-22T09:59:16.057Z,3.63
2022-09-22T10:01:46.906Z,3.20
2022-09-22T10:04:18.655Z,2.87
2022-09-22T10:06:46.537Z,3.00
2022-09-22T10:09:23.939Z,2.63
2022-09-22T10:12:01.507Z,2.87
2022-09-22T10:14:30.944Z,2.70
2022-09-22T10:16:58.149Z,2.73
2022-09-22T10:19:34.560Z,3.00
2022-09-22T10:22:23.635Z,3.17
2022-09-22T10:25:13.899Z,2.90
2022-09-22T10:27:41.099Z,3.00
2022-09-22T10:30:28.453Z,3.00
2022-09-22T10:33:06.304Z,2.57
2022-09-22T10:35:35.725Z,2.40
2022-09-22T10:38:11.867Z,2.60
2022-09-22T10:40:41.491Z,3.17
2022-09-22T10:43:21.413Z,3.00
2022-09-22T10:45:54.853Z,2.47
2022-09-22T10:48:37.502Z,2.60
2022-09-22T10:51:07.989Z,2.30
2022-09-22T10:53:54.123Z,2.50
2022-09-22T10:56:21.246Z,2.67
2022-09-22T10:58:48.357Z,2.27
2022-09-22T11:01:34.209Z,2.13
2022-09-22T11:04:21.876Z,1.97
2022-09-22T11:07:21.184Z,1.80
2022-09-22T11:10:17.530Z,2.00
2022-09-22T11:12:47.511Z,2.20
2022-09-22T11:15:27.455Z,1.57
2022-09-22T11:17:57.404Z,2.10
2022-09-22T11:20:31.945Z,1.93
2022-09-22T11:23:09.984Z,2.17
2022-09-22T11:25:57.186Z,1.47
2022-09-22T11:28:30.492Z,2.00
2022-09-22T11:30:59.125Z,1.90
2022-09-22T11:33:26.548Z,1.77
2022-09-22T11:36:01.192Z,1.90
2022-09-22T11:38:37.675Z,1.60
2022-09-22T11:41:15.603Z,1.80
2022-09-22T11:43:48.340Z,2.77
2022-09-22T11:46:34.267Z,1.90
2022-09-22T11:49:01.514Z,2.70
2022-09-22T11:51:48.764Z,1.60
2022-09-22T11:54:29.639Z,1.70
2022-09-22T11:57:01.356Z,1.53
2022-09-22T11:59:38.343Z,2.00
2022-09-22T12:02:12.344Z,1.60
2022-09-22T12:04:51.038Z,1.80
2022-09-22T12:07:32.665Z,1.50
2022-09-22T12:10:09.426Z,1.53
2022-09-22T12:12:37.500Z,1.47
2022-09-22T12:15:10.900Z,1.50
2022-09-22T12:18:02.719Z,1.87
2022-09-22T12:20:49.387Z,1.50
2022-09-22T12:23:18.523Z,1.47
2022-09-22T12:25:51.283Z,1.27
2022-09-22T12:28:27.277Z,1.43
2022-09-22T12:30:54.513Z,1.20
2022-09-22T12:33:22.641Z,1.50
2022-09-22T12:35:55.851Z,1.20
2022-09-22T12:38:24.187Z,1.30
2022-09-22T12:40:52.945Z,1.20
2022-09-22T12:43:22.566Z,1.40
2022-09-22T12:45:50.984Z,1.20
2022-09-22T12:48:19.553Z,1.10
2022-09-22T12:50:48.664Z,1.20
2022-09-22T12:53:21.854Z,2.10
2022-09-22T12:55:49.544Z,1.53
2022-09-22T12:58:20.391Z,1.43
2022-09-22T13:00:53.011Z,1.50
2022-09-22T13:03:26.760Z,1.23
2022-09-22T13:06:04.261Z,1.67
2022-09-22T13:08:35.087Z,1.50
2022-09-22T13:11:03.352Z,1.47
2022-09-22T13:13:31.019Z,1.40
2022-09-22T13:16:02.879Z,1.20
2022-09-22T13:18:40.179Z,1.27
2022-09-22T13:21:13.452Z,1.50
2022-09-22T13:23:54.850Z,1.43
2022-09-22T13:26:23.573Z,1.40
2022-09-22T13:29:00.150Z,1.60
2022-09-22T13:31:27.463Z,1.70
2022-09-22T13:33:54.600Z,1.47
2022-09-22T13:36:24.140Z,1.00
2022-09-22T13:38:55.037Z,1.37
2022-09-22T13:41:34.850Z,1.50
2022-09-22T13:44:09.559Z,1.40
2022-09-22T13:46:49.940Z,1.40
2022-09-22T13:49:21.909Z,1.40
2022-09-22T13:51:56.424Z,1.50
2022-09-22T13:54:24.570Z,1.57
2022-09-22T13:56:52.134Z,1.73
2022-09-22T13:59:21.423Z,2.13
2022-09-22T14:01:53.197Z,2.10
2022-09-22T14:04:28.036Z,1.40
2022-09-22T14:06:59.091Z,1.40
2022-09-22T14:09:26.659Z,1.60
2022-09-22T14:11:56.431Z,1.30
2022-09-22T14:14:24.421Z,1.43
2022-09-22T14:17:03.461Z,1.53
2022-09-22T14:19:36.360Z,1.50
2022-09-22T14:22:14.819Z,1.40
2022-09-22T14:24:44.375Z,1.50
2022-09-22T14:27:18.481Z,1.70
2022-09-22T14:29:48.078Z,1.27
2022-09-22T14:32:17.453Z,1.80
2022-09-22T14:34:52.940Z,1.60
2022-09-22T14:37:26.352Z,1.63
2022-09-22T14:39:54.111Z,1.20
2022-09-22T14:42:26.682Z,1.50
2022-09-22T14:44:54.006Z,1.50
2022-09-22T14:47:25.891Z,0.90
2022-09-22T14:50:09.434Z,1.40
2022-09-22T14:52:40.295Z,1.70
2022-09-22T14:55:13.575Z,1.53
2022-09-22T14:57:44.344Z,1.30
2022-09-22T15:00:35.718Z,1.80
2022-09-22T15:03:06.070Z,1.63
2022-09-22T15:05:34.269Z,1.33
2022-09-22T15:08:02.183Z,1.40
2022-09-22T15:10:31.505Z,2.47
2022-09-22T15:13:19.619Z,1.90
2022-09-22T15:15:48.226Z,1.77
2022-09-22T15:18:16.286Z,2.37
2022-09-22T15:20:47.112Z,1.23
2022-09-22T15:23:16.504Z,2.10
2022-09-22T15:25:46.520Z,3.17
2022-09-22T15:28:16.815Z,1.83
2022-09-22T15:30:44.794Z,4.60
2022-09-22T15:33:14.442Z,3.40
2022-09-22T15:35:42.781Z,1.67
2022-09-22T15:38:32.223Z,1.80
2022-09-22T15:41:00.943Z,1.80
2022-09-22T15:43:31.531Z,1.43
2022-09-22T15:46:03.056Z,1.30
2022-09-22T15:48:35.042Z,3.17
2022-09-22T15:51:06.111Z,1.70
2022-09-22T15:53:33.977Z,2.00
2022-09-22T15:56:03.557Z,1.40
2022-09-22T15:58:37.535Z,1.70
2022-09-22T16:01:05.852Z,1.47
2022-09-22T16:03:36.987Z,1.40
2022-09-22T16:06:10.410Z,1.43
2022-09-22T16:08:56.508Z,1.07
2022-09-22T16:11:30.797Z,1.70
2022-09-22T16:13:58.896Z,1.60
2022-09-22T16:16:29.514Z,1.27
2022-09-22T16:18:57.360Z,1.43
2022-09-22T16:21:30.431Z,1.60
2022-09-22T16:24:02.905Z,1.50
2022-09-22T16:26:33.460Z,1.80
2022-09-22T16:29:01.785Z,1.10
2022-09-22T16:31:29.181Z,1.87
2022-09-22T16:33:57.526Z,1.73
2022-09-22T16:36:26.146Z,1.70
2022-09-22T16:38:55.264Z,1.90
2022-09-22T16:41:24.645Z,1.63
2022-09-22T16:43:54.299Z,1.80
2022-09-22T16:46:28.366Z,1.50
2022-09-22T16:49:17.190Z,1.67
2022-09-22T16:51:46.767Z,2.07
2022-09-22T16:54:15.816Z,1.97
2022-09-22T16:56:44.204Z,1.60
2022-09-22T16:59:15.216Z,1.30
2022-09-22T17:01:44.736Z,1.67
2022-09-22T17:04:13.050Z,1.47
2022-09-22T17:06:41.718Z,1.67
2022-09-22T17:09:11.385Z,1.33
2022-09-22T17:11:40.885Z,1.80
2022-09-22T17:14:13.628Z,1.77
2022-09-22T17:16:42.019Z,1.53
2022-09-22T17:19:36.069Z,1.87
2022-09-22T17:22:05.901Z,1.77
2022-09-22T17:24:33.881Z,1.70
2022-09-22T17:27:01.031Z,1.80
2022-09-22T17:29:29.889Z,2.10
2022-09-22T17:31:59.217Z,1.70
2022-09-22T17:34:29.468Z,1.77
2022-09-22T17:36:57.477Z,1.80
2022-09-22T17:39:25.822Z,2.30
2022-09-22T17:41:53.080Z,1.70
2022-09-22T17:44:23.143Z,2.10
2022-09-22T17:47:09.785Z,2.00
2022-09-22T17:49:55.765Z,1.93
2022-09-22T17:52:32.410Z,1.90
2022-09-22T17:55:11.826Z,2.23
2022-09-22T17:57:40.155Z,1.90
2022-09-22T18:00:08.551Z,2.37
2022-09-22T18:02:39.503Z,2.67
2022-09-22T18:05:07.375Z,3.00
2022-09-22T18:07:35.241Z,2.87
2022-09-22T18:10:02.924Z,4.03
2022-09-22T18:12:31.963Z,6.33
2022-09-22T18:15:06.360Z,5.30
2022-09-22T18:17:40.764Z,4.13
2022-09-22T18:20:09.619Z,3.70
2022-09-22T18:22:36.761Z,4.43
2022-09-22T18:25:04.100Z,4.40
2022-09-22T18:27:32.260Z,4.73
2022-09-22T18:29:59.572Z,4.37
2022-09-22T18:32:27.848Z,4.10
2022-09-22T18:34:55.673Z,4.23
2022-09-22T18:37:23.672Z,4.13
2022-09-22T18:39:51.023Z,5.93
2022-09-22T18:42:19.089Z,6.07
2022-09-22T18:44:47.372Z,6.77
2022-09-22T18:47:17.840Z,7.47
2022-09-22T18:49:47.994Z,8.40
2022-09-22T18:52:23.034Z,7.43
2022-09-22T18:54:53.055Z,7.47
2022-09-22T18:57:23.455Z,7.57
2022-09-22T18:59:51.536Z,7.73
2022-09-22T19:02:21.604Z,6.57
2022-09-22T19:04:49.428Z,6.17
2022-09-22T19:07:40.346Z,7.13
2022-09-22T19:10:11.977Z,8.00
2022-09-22T19:12:43.105Z,9.73
2022-09-22T19:15:18.912Z,11.07
2022-09-22T19:17:47.664Z,10.70
2022-09-22T19:20:15.702Z,10.27
2022-09-22T19:22:42.911Z,10.70
2022-09-22T19:25:10.502Z,9.17
2022-09-22T19:27:39.974Z,7.93
2022-09-22T19:30:07.671Z,7.23
2022-09-22T19:32:35.624Z,7.73
2022-09-22T19:35:02.922Z,7.80
2022-09-22T19:37:30.228Z,8.67
2022-09-22T19:39:57.426Z,10.03
2022-09-22T19:42:24.564Z,9.67
2022-09-22T19:44:52.031Z,8.77
2022-09-22T19:47:20.099Z,8.47
2022-09-22T19:49:47.303Z,10.63
2022-09-22T19:52:14.463Z,7.93
2022-09-22T19:54:41.626Z,8.20
2022-09-22T19:57:08.789Z,8.00
2022-09-22T19:59:35.950Z,7.77
2022-09-22T20:02:04.557Z,7.43
2022-09-22T20:04:34.965Z,7.60
2022-09-22T20:07:03.070Z,7.60
2022-09-22T20:09:30.415Z,8.23
2022-09-22T20:11:57.786Z,7.80
2022-09-22T20:14:27.147Z,7.43
2022-09-22T20:16:55.856Z,6.50
2022-09-22T20:19:23.891Z,5.97
2022-09-22T20:21:51.587Z,5.93
2022-09-22T20:24:20.067Z,6.17
2022-09-22T20:26:47.757Z,6.13
2022-09-22T20:29:16.059Z,6.03
2022-09-22T20:31:43.569Z,5.67
2022-09-22T20:34:13.262Z,5.67
2022-09-22T20:36:42.973Z,5.50
2022-09-22T20:39:13.202Z,6.73
2022-09-22T20:41:41.032Z,6.23
2022-09-22T20:44:14.291Z,6.67
2022-09-22T20:46:42.483Z,7.07
2022-09-22T20:49:12.868Z,8.60
2022-09-22T20:51:40.341Z,8.97
2022-09-22T20:54:07.732Z,7.23
2022-09-22T20:56:38.310Z,7.73
2022-09-22T20:59:07.906Z,8.00
2022-09-22T21:01:35.104Z,8.13
2022-09-22T21:04:02.475Z,7.87
2022-09-22T21:06:30.917Z,6.97
2022-09-22T21:09:18.967Z,6.87
2022-09-22T21:11:47.172Z,6.30
2022-09-22T21:14:14.408Z,6.47
2022-09-22T21:16:41.843Z,5.90
2022-09-22T21:19:09.359Z,6.10
2022-09-22T21:21:39.708Z,7.33
2022-09-22T21:24:07.083Z,5.40
2022-09-22T21:26:35.911Z,4.70
2022-09-22T21:29:03.177Z,5.10
2022-09-22T21:31:30.332Z,5.13
2022-09-22T21:33:57.529Z,4.80
2022-09-22T21:36:24.818Z,5.27
2022-09-22T21:38:55.978Z,5.20
2022-09-22T21:41:24.234Z,5.60
2022-09-22T21:43:51.841Z,6.77
2022-09-22T21:46:20.676Z,7.50
2022-09-22T21:48:48.067Z,7.20
2022-09-22T21:51:16.413Z,6.77
2022-09-22T21:53:44.211Z,6.00
2022-09-22T21:56:12.576Z,5.97
2022-09-22T21:58:40.884Z,6.57
2022-09-22T22:01:09.654Z,6.10
2022-09-22T22:03:39.940Z,6.17
2022-09-22T22:06:18.356Z,5.50
2022-09-22T22:08:51.235Z,5.50
2022-09-22T22:11:22.655Z,6.30
2022-09-22T22:13:54.585Z,5.70
2022-09-22T22:16:23.160Z,5.00
2022-09-22T22:18:50.844Z,4.57
2022-09-22T22:21:23.627Z,4.93
2022-09-22T22:23:56.175Z,5.53
2022-09-22T22:26:25.091Z,4.93
2022-09-22T22:28:52.907Z,4.47
2022-09-22T22:31:21.035Z,4.57
2022-09-22T22:33:48.287Z,4.67
2022-09-22T22:36:16.609Z,5.03
2022-09-22T22:38:44.674Z,4.57
2022-09-22T22:41:17.215Z,4.23
2022-09-22T22:43:45.243Z,4.47
2022-09-22T22:46:16.557Z,4.40
2022-09-22T22:48:44.486Z,5.17
2022-09-22T22:51:14.696Z,5.93
2022-09-22T22:53:42.507Z,5.30
2022-09-22T22:56:14.066Z,5.40
2022-09-22T22:58:43.424Z,5.40
2022-09-22T23:01:12.121Z,5.40
2022-09-22T23:03:41.220Z,5.47
2022-09-22T23:06:11.587Z,5.53
2022-09-22T23:08:38.968Z,5.23
2022-09-22T23:11:08.925Z,5.23
2022-09-22T23:13:36.076Z,5.20
2022-09-22T23:16:07.326Z,5.40
2022-09-22T23:18:35.461Z,5.33
2022-09-22T23:21:05.757Z,5.33
2022-09-22T23:23:33.241Z,5.83
2022-09-22T23:26:01.113Z,5.67
2022-09-22T23:28:28.839Z,5.37
2022-09-22T23:31:03.648Z,5.73
2022-09-22T23:33:31.341Z,5.50
2022-09-22T23:35:59.830Z,5.57
2022-09-22T23:38:28.092Z,5.97
2022-09-22T23:40:55.273Z,5.70
2022-09-22T23:43:23.042Z,5.27
2022-09-22T23:45:51.990Z,6.33
2022-09-22T23:48:19.967Z,6.50
2022-09-22T23:50:51.139Z,5.63
2022-09-22T23:53:19.288Z,6.27
2022-09-22T23:55:46.530Z,5.83
2022-09-22T23:58:16.930Z,5.77
